Time;durP1;ratioP1;P1;durP2;ratioP2;P2;SDS_P1;SDS_P2;PMS_P1;PMS_P2;Temp;Humidity;BMP_temperature;BMP_pressure;BME280_temperature;BME280_humidity;BME280_pressure;Samples;Min_cycle;Max_cycle;Signal;HPM_P1;HPM_P2
2021/03/11 00:00:41;;;;;;;15.55;7.35;;;;;;;1.12;65.04;100225.78;6188799;23;20043;-80
2021/03/11 00:03:07;;;;;;;16.25;8.60;;;;;;;1.09;66.11;100228.72;6186903;23;20012;-79
2021/03/11 00:05:35;;;;;;;15.40;8.55;;;;;;;1.00;65.74;100227.84;6186443;23;20406;-80
2021/03/11 00:08:01;;;;;;;9.90;6.15;;;;;;;0.97;66.23;100208.78;6185400;23;20008;-80
2021/03/11 00:10:26;;;;;;;18.55;8.60;;;;;;;0.54;66.29;100139.69;6163702;23;20005;-79
2021/03/11 00:12:52;;;;;;;12.27;6.93;;;;;;;0.93;66.38;100190.53;6188190;23;20025;-80
2021/03/11 00:15:20;;;;;;;11.98;7.13;;;;;;;0.81;66.42;100157.31;6162325;23;20009;-80
2021/03/11 00:17:46;;;;;;;12.73;7.60;;;;;;;0.94;66.12;100184.22;6164739;23;20017;-80
2021/03/11 00:20:14;;;;;;;13.00;8.27;;;;;;;0.87;66.71;100167.28;6165717;23;20284;-80
2021/03/11 00:22:41;;;;;;;10.98;6.65;;;;;;;0.88;67.12;100181.38;6188558;23;20001;-80
2021/03/11 00:25:12;;;;;;;13.70;8.63;;;;;;;0.79;67.03;100148.66;6187996;23;20028;-80
2021/03/11 00:27:39;;;;;;;14.57;8.88;;;;;;;0.76;67.48;100156.09;6187362;23;20276;-80
2021/03/11 00:30:06;;;;;;;12.93;7.65;;;;;;;0.75;68.15;100163.19;6186224;23;20027;-79
2021/03/11 00:32:32;;;;;;;16.75;8.05;;;;;;;0.74;68.14;100147.47;6187701;23;20016;-80
2021/03/11 00:34:57;;;;;;;13.75;7.63;;;;;;;0.68;69.09;100140.97;6189730;23;19996;-80
2021/03/11 00:37:24;;;;;;;14.13;8.55;;;;;;;0.54;70.11;100093.84;6187844;23;20009;-80
2021/03/11 00:39:49;;;;;;;17.63;10.73;;;;;;;0.40;70.67;100111.09;6188306;23;20308;-80
2021/03/11 00:42:14;;;;;;;15.30;10.05;;;;;;;0.53;71.89;100139.81;6162161;23;20009;-79
2021/03/11 00:44:40;;;;;;;20.45;11.68;;;;;;;0.33;72.17;100102.06;6187688;23;20011;-80
2021/03/11 00:47:06;;;;;;;17.50;10.70;;;;;;;0.38;72.76;100105.09;6188852;23;20011;-80
2021/03/11 00:49:33;;;;;;;15.02;8.75;;;;;;;0.35;73.98;100106.22;6190420;23;20088;-80
2021/03/11 00:51:58;;;;;;;19.02;11.13;;;;;;;-0.01;74.12;100063.88;6187517;23;20013;-80
2021/03/11 00:54:24;;;;;;;17.55;10.48;;;;;;;0.25;75.78;100096.72;6188445;23;20040;-80
2021/03/11 00:56:49;;;;;;;21.50;13.07;;;;;;;0.14;75.39;100098.59;6189311;23;20623;-80
2021/03/11 00:59:15;;;;;;;17.48;10.32;;;;;;;0.05;76.13;100066.91;6189613;23;20077;-80
2021/03/11 01:01:40;;;;;;;21.83;12.35;;;;;;;0.07;76.56;100067.59;6164037;23;20371;-80
2021/03/11 01:04:06;;;;;;;22.02;12.57;;;;;;;0.02;76.67;100062.75;6187539;23;20435;-80
2021/03/11 01:06:32;;;;;;;23.45;14.35;;;;;;;-0.21;77.22;100022.66;6165490;23;20012;-81
2021/03/11 01:08:58;;;;;;;23.58;13.88;;;;;;;-0.03;78.08;100033.28;6190764;23;20083;-80
2021/03/11 01:11:24;;;;;;;22.70;9.80;;;;;;;-0.42;78.50;99961.31;6191595;23;20020;-80
2021/03/11 01:13:49;;;;;;;23.40;13.32;;;;;;;-0.08;78.56;100031.06;6192298;23;20403;-80
2021/03/11 01:16:15;;;;;;;17.23;8.18;;;;;;;-0.11;78.87;100015.50;6166642;23;20009;-80
2021/03/11 01:18:40;;;;;;;23.50;14.55;;;;;;;-0.13;79.00;100006.91;6199592;23;20005;-80
2021/03/11 01:21:06;;;;;;;23.52;14.98;;;;;;;-0.27;79.42;99965.09;6171044;23;20012;-80
2021/03/11 01:23:31;;;;;;;23.63;15.57;;;;;;;-0.45;79.55;99937.81;6193681;23;19997;-80
2021/03/11 01:25:57;;;;;;;26.90;16.67;;;;;;;-0.20;79.33;99982.00;6194501;23;20395;-80
2021/03/11 01:28:22;;;;;;;26.05;13.65;;;;;;;-0.18;80.02;99964.19;6170245;23;20023;-80
2021/03/11 01:30:49;;;;;;;24.85;14.50;;;;;;;-0.26;79.49;99943.81;6199935;23;20348;-81
2021/03/11 01:33:15;;;;;;;26.83;16.08;;;;;;;-0.24;80.20;99933.06;6149701;23;20388;-81
2021/03/11 01:35:40;;;;;;;23.77;14.73;;;;;;;-0.24;80.51;99933.06;6173265;23;20016;-81
2021/03/11 01:38:06;;;;;;;27.13;16.42;;;;;;;-0.33;80.61;99902.25;6198172;23;20009;-81
2021/03/11 01:40:33;;;;;;;17.42;11.05;;;;;;;-0.19;80.34;99914.97;6199104;23;20001;-81
2021/03/11 01:42:59;;;;;;;27.95;16.40;;;;;;;-0.51;80.72;99862.63;6199563;23;20020;-81
2021/03/11 01:45:25;;;;;;;22.40;12.93;;;;;;;-0.27;80.52;99891.91;6175099;23;20005;-81
2021/03/11 01:47:51;;;;;;;26.02;17.10;;;;;;;-0.38;80.82;99872.81;6200575;23;20020;-81
2021/03/11 01:50:17;;;;;;;26.92;16.70;;;;;;;-0.29;80.97;99848.13;6200154;23;20466;-81
2021/03/11 01:52:43;;;;;;;29.08;17.77;;;;;;;-0.32;81.53;99851.06;6201034;23;20008;-80
2021/03/11 01:55:10;;;;;;;33.28;18.73;;;;;;;-0.28;81.81;99849.78;6199944;23;20055;-81
2021/03/11 01:57:36;;;;;;;28.60;17.25;;;;;;;-0.26;81.99;99840.72;6200279;23;20047;-81
2021/03/11 02:00:05;;;;;;;27.67;18.33;;;;;;;-0.39;82.02;99797.16;6198963;23;20015;-82
2021/03/11 02:02:31;;;;;;;25.27;16.77;;;;;;;-0.30;82.23;99799.72;6200276;23;20039;-81
2021/03/11 02:04:56;;;;;;;25.77;16.17;;;;;;;-0.61;81.94;99743.78;6177776;23;20100;-81
2021/03/11 02:07:22;;;;;;;27.70;17.70;;;;;;;-0.40;81.85;99769.88;6152396;23;20039;-80
2021/03/11 02:09:48;;;;;;;22.75;16.35;;;;;;;-0.28;82.82;99789.78;6177364;23;20013;-81
2021/03/11 02:12:25;;;;;;;25.40;16.77;;;;;;;-0.31;82.42;99763.66;6178496;23;20307;-80
2021/03/11 02:15:26;;;;;;;28.05;18.45;;;;;;;-0.28;82.29;99766.00;6202747;23;20005;-81
2021/03/11 02:18:01;;;;;;;29.05;19.40;;;;;;;-0.47;82.32;99737.13;6203276;23;20027;-80
2021/03/11 02:20:37;;;;;;;;;;;;;;;-0.34;82.57;99757.88;6203072;23;20005;-81
2021/03/11 02:23:30;;;;;;;28.83;18.45;;;;;;;-0.32;82.57;99724.19;6202911;23;19948;-80
2021/03/11 02:26:27;;;;;;;28.05;17.50;;;;;;;-0.54;82.87;99675.31;6201744;23;20016;-81
2021/03/11 02:29:05;;;;;;;29.77;18.85;;;;;;;-0.44;83.21;99691.88;6201645;23;19997;-81
2021/03/11 02:31:41;;;;;;;30.80;19.45;;;;;;;-0.42;82.88;99683.81;6199484;23;20004;-81
2021/03/11 02:34:22;;;;;;;30.38;19.60;;;;;;;-0.37;83.16;99677.06;6202310;23;20013;-81
2021/03/11 02:36:54;;;;;;;27.88;17.77;;;;;;;-0.44;83.26;99662.00;6199329;23;20005;-81
2021/03/11 02:39:23;;;;;;;31.80;19.73;;;;;;;-0.26;83.66;99668.06;6199874;23;19997;-81
2021/03/11 02:41:51;;;;;;;32.15;20.55;;;;;;;-0.27;83.86;99646.06;6175981;23;20009;-82
2021/03/11 02:44:17;;;;;;;31.45;19.95;;;;;;;-0.53;83.49;99606.47;6199556;23;20015;-81
2021/03/11 02:46:43;;;;;;;31.58;19.95;;;;;;;-0.26;83.44;99639.81;6173531;23;20009;-81
2021/03/11 02:49:09;;;;;;;28.30;18.10;;;;;;;-0.32;83.67;99597.31;6198989;23;20001;-81
2021/03/11 02:51:36;;;;;;;25.98;17.13;;;;;;;-0.25;83.66;99595.69;6173694;23;20059;-81
2021/03/11 02:54:02;;;;;;;35.35;21.90;;;;;;;-0.39;84.34;99577.78;6198643;23;20005;-82
2021/03/11 02:56:28;;;;;;;28.92;17.67;;;;;;;-0.28;84.42;99580.16;6195116;23;20037;-81
2021/03/11 02:58:57;;;;;;;25.90;16.20;;;;;;;-0.22;84.19;99584.81;6194833;23;20009;-81
2021/03/11 03:01:25;;;;;;;37.13;22.55;;;;;;;-0.61;84.38;99513.13;6196695;23;20016;-81
2021/03/11 03:03:52;;;;;;;34.63;22.95;;;;;;;-0.83;84.43;99465.19;6196022;23;20295;-80
2021/03/11 03:06:18;;;;;;;33.65;21.05;;;;;;;-0.34;84.22;99531.38;6193832;23;20009;-81
2021/03/11 03:08:45;;;;;;;31.15;18.85;;;;;;;-0.26;84.41;99531.44;6195367;23;20019;-81
2021/03/11 03:11:13;;;;;;;34.85;23.13;;;;;;;-0.24;84.60;99524.13;6199185;23;20016;-81
2021/03/11 03:13:41;;;;;;;31.83;20.52;;;;;;;-0.28;84.53;99519.34;6198775;23;20009;-81
2021/03/11 03:16:07;;;;;;;34.78;21.70;;;;;;;-0.21;84.58;99520.34;6196489;23;20035;-81
2021/03/11 03:18:35;;;;;;;32.58;21.83;;;;;;;-0.48;84.74;99456.19;6207079;23;19989;-81
2021/03/11 03:21:05;;;;;;;27.20;17.90;;;;;;;-0.31;85.34;99450.94;6203525;23;20016;-81
2021/03/11 03:23:31;;;;;;;32.15;22.00;;;;;;;-0.27;84.83;99476.88;6205821;23;20072;-82
2021/03/11 03:25:56;;;;;;;33.70;21.33;;;;;;;-0.21;84.51;99454.25;6199614;23;20005;-82
2021/03/11 03:28:22;;;;;;;36.40;22.70;;;;;;;-0.33;84.68;99447.63;6150156;23;20395;-82
2021/03/11 03:30:47;;;;;;;24.17;15.90;;;;;;;-0.19;84.39;99440.91;6174891;23;20013;-81
2021/03/11 03:33:16;;;;;;;34.70;22.33;;;;;;;-0.21;84.74;99450.81;6175303;23;20009;-82
2021/03/11 03:35:42;;;;;;;32.38;21.27;;;;;;;-0.21;85.22;99450.81;6198790;23;20031;-82
2021/03/11 03:38:08;;;;;;;30.23;18.77;;;;;;;-0.21;84.92;99429.66;6199253;23;20009;-82
2021/03/11 03:40:35;;;;;;;29.23;18.55;;;;;;;-0.22;84.90;99418.25;6196047;23;20001;-82
2021/03/11 03:43:18;;;;;;;29.55;17.70;;;;;;;-0.19;84.79;99417.94;6194882;23;20307;-80
2021/03/11 03:45:52;;;;;;;29.33;19.90;;;;;;;-0.16;84.59;99411.50;6194795;23;20035;-80
2021/03/11 03:48:22;;;;;;;27.47;14.70;;;;;;;-0.19;84.99;99402.06;6194806;23;20414;-81
2021/03/11 03:50:49;;;;;;;27.65;20.00;;;;;;;-0.24;85.23;99373.47;6202604;23;20363;-82
2021/03/11 03:53:24;;;;;;;31.67;22.30;;;;;;;-0.17;85.45;99378.91;6195863;23;20028;-81
2021/03/11 03:55:56;;;;;;;32.03;21.60;;;;;;;-0.22;85.38;99349.53;6195237;23;20009;-80
2021/03/11 03:58:25;;;;;;;26.20;17.23;;;;;;;-0.19;85.51;99358.97;6194826;23;20017;-82
2021/03/11 04:00:51;;;;;;;38.20;23.38;;;;;;;-0.20;84.78;99366.03;6193991;23;20011;-81
2021/03/11 04:03:18;;;;;;;32.40;22.05;;;;;;;-0.22;85.00;99354.81;6194729;23;20459;-81
2021/03/11 04:05:46;;;;;;;28.40;17.10;;;;;;;-0.12;85.02;99357.28;6194489;23;20016;-80
2021/03/11 04:08:11;;;;;;;27.98;19.13;;;;;;;-0.11;85.35;99351.00;6195932;23;20005;-80
2021/03/11 04:10:41;;;;;;;35.35;24.17;;;;;;;-0.33;85.40;99302.28;6196004;23;20072;-81
2021/03/11 04:13:07;;;;;;;28.70;19.77;;;;;;;-0.08;85.00;99318.94;6194239;23;20005;-81
2021/03/11 04:15:34;;;;;;;29.52;20.50;;;;;;;-0.12;85.37;99299.94;6195529;23;20015;-82
2021/03/11 04:18:00;;;;;;;24.60;16.50;;;;;;;-0.36;85.21;99268.28;6201487;23;20016;-81
2021/03/11 04:20:26;;;;;;;27.00;18.60;;;;;;;-0.09;85.19;99280.28;6173753;23;20041;-81
2021/03/11 04:22:52;;;;;;;31.90;19.77;;;;;;;-0.32;85.45;99243.16;6146146;23;20008;-81
2021/03/11 04:25:18;;;;;;;35.20;23.13;;;;;;;-0.13;85.35;99247.22;6197415;23;20008;-81
2021/03/11 04:27:43;;;;;;;19.00;11.77;;;;;;;-0.09;85.87;99262.59;6173969;23;20031;-82
2021/03/11 04:30:09;;;;;;;30.80;21.77;;;;;;;-0.20;85.46;99240.97;6200304;23;20072;-81
2021/03/11 04:32:36;;;;;;;24.95;18.02;;;;;;;-0.16;85.98;99235.19;6196141;23;20020;-81
2021/03/11 04:35:02;;;;;;;23.75;16.15;;;;;;;-0.11;85.48;99232.03;6192896;23;20013;-81
2021/03/11 04:37:27;;;;;;;29.08;18.42;;;;;;;-0.18;85.53;99208.09;6200537;23;20047;-82
2021/03/11 04:39:53;;;;;;;28.67;19.33;;;;;;;-0.05;85.57;99220.78;6198953;23;20008;-81
2021/03/11 04:42:19;;;;;;;26.40;17.85;;;;;;;-0.29;85.53;99161.72;6196984;23;20012;-82
2021/03/11 04:44:45;;;;;;;19.05;12.90;;;;;;;-0.12;85.79;99183.63;6175284;23;20100;-79
2021/03/11 04:47:14;;;;;;;27.70;19.23;;;;;;;-0.07;85.91;99197.16;6193962;23;20023;-81
2021/03/11 04:49:40;;;;;;;21.33;15.27;;;;;;;-0.22;85.72;99153.91;6173831;23;20039;-81
2021/03/11 04:52:08;;;;;;;19.55;13.93;;;;;;;-0.09;85.43;99185.94;6196831;23;20001;-81
2021/03/11 04:54:35;;;;;;;24.75;15.82;;;;;;;0.03;85.57;99193.47;6201769;23;20015;-82
2021/03/11 04:57:01;;;;;;;23.75;17.10;;;;;;;-0.05;85.88;99179.31;6179348;23;20036;-82
2021/03/11 04:59:27;;;;;;;21.40;15.77;;;;;;;-0.08;85.72;99158.50;6184025;23;20004;-81
2021/03/11 05:01:57;;;;;;;20.60;14.55;;;;;;;-0.02;85.61;99149.88;6210514;23;20001;-83
2021/03/11 05:04:23;;;;;;;25.90;17.27;;;;;;;0.00;86.01;99162.94;6211193;23;20016;-83
2021/03/11 05:06:49;;;;;;;16.08;11.80;;;;;;;0.01;85.62;99142.59;6211955;23;20013;-82
2021/03/11 05:09:14;;;;;;;19.58;14.38;;;;;;;0.04;86.13;99150.19;6210702;23;20053;-83
2021/03/11 05:11:42;;;;;;;19.92;13.20;;;;;;;-0.04;85.93;99127.25;6163799;23;20000;-82
2021/03/11 05:14:08;;;;;;;17.30;12.25;;;;;;;-0.02;85.78;99107.56;6212839;23;20043;-84
2021/03/11 05:16:33;;;;;;;20.60;14.95;;;;;;;-0.25;85.89;99081.06;6213085;23;20025;-84
2021/03/11 05:18:59;;;;;;;16.55;12.13;;;;;;;-0.39;85.73;99026.31;6187893;23;20009;-83
2021/03/11 05:24:00;;;;;;;16.75;12.50;;;;;;;-0.79;86.04;98951.53;6204001;22;19907;-83
2021/03/11 05:26:27;;;;;;;19.30;13.57;;;;;;;-0.42;86.19;99020.56;6244433;22;19993;-83
2021/03/11 05:28:53;;;;;;;14.95;10.80;;;;;;;-0.69;85.68;98937.31;6243055;22;20028;-84
2021/03/11 05:31:19;;;;;;;15.85;11.43;;;;;;;-0.59;86.17;98953.75;6243851;22;20046;-83
2021/03/11 05:33:45;;;;;;;17.92;12.82;;;;;;;-0.49;85.83;98949.06;6242815;22;19992;-83
2021/03/11 05:36:10;;;;;;;14.77;11.20;;;;;;;-0.47;85.88;98950.53;6242947;22;20019;-84
2021/03/11 05:38:36;;;;;;;16.27;11.65;;;;;;;-0.53;86.21;98937.19;6243045;22;19997;-83
2021/03/11 05:41:02;;;;;;;10.40;7.15;;;;;;;-0.66;85.68;98894.66;6200947;22;20016;-84
2021/03/11 05:43:29;;;;;;;15.60;11.27;;;;;;;-0.64;85.76;98916.47;6243203;22;19993;-83
2021/03/11 05:45:57;;;;;;;11.82;8.27;;;;;;;-0.32;86.12;98929.47;6242651;22;20201;-83
2021/03/11 05:48:25;;;;;;;14.68;10.27;;;;;;;-0.59;86.01;98877.16;6238079;23;20015;-82
2021/03/11 05:50:52;;;;;;;12.85;9.23;;;;;;;-0.33;85.72;98903.22;6237069;23;19995;-83
2021/03/11 05:53:18;;;;;;;13.30;10.30;;;;;;;-0.55;85.54;98871.34;6235679;23;20012;-83
2021/03/11 05:55:44;;;;;;;14.45;10.88;;;;;;;-0.21;85.90;98928.25;6234860;23;20068;-82
2021/03/11 05:58:11;;;;;;;9.65;6.93;;;;;;;0.28;85.58;98958.78;6235002;23;20008;-83
2021/03/11 06:00:37;;;;;;;6.53;4.70;;;;;;;-0.30;85.52;98869.34;6234852;23;20012;-81
2021/03/11 06:03:04;;;;;;;13.35;9.93;;;;;;;0.22;85.86;98944.44;6230303;23;20008;-81
2021/03/11 06:05:31;;;;;;;9.82;6.88;;;;;;;-0.21;85.47;98856.88;6221658;23;20106;-81
2021/03/11 06:07:58;;;;;;;7.25;5.43;;;;;;;0.27;85.68;98926.22;6216019;23;20013;-81
2021/03/11 06:10:24;;;;;;;12.13;8.85;;;;;;;0.37;85.40;98945.31;6190539;23;20016;-81
2021/03/11 06:13:10;;;;;;;11.23;7.65;;;;;;;0.39;85.60;98942.47;6215863;23;20012;-80
2021/03/11 06:15:37;;;;;;;11.57;7.25;;;;;;;0.46;85.59;98928.38;6227659;23;20015;-83
2021/03/11 06:18:07;;;;;;;16.02;11.27;;;;;;;0.50;85.59;98930.63;6198281;23;20008;-81
2021/03/11 06:20:34;;;;;;;14.32;8.30;;;;;;;0.49;85.33;98913.13;6219689;23;20051;-80
2021/03/11 06:23:00;;;;;;;11.52;7.20;;;;;;;0.41;85.43;98909.56;6230418;22;20040;-82
2021/03/11 06:25:27;;;;;;;13.88;10.38;;;;;;;0.36;85.36;98890.75;6235531;23;20020;-83
2021/03/11 06:27:52;;;;;;;12.13;9.50;;;;;;;0.42;85.27;98887.38;6230989;23;20005;-83
2021/03/11 06:30:41;;;;;;;12.55;9.68;;;;;;;0.51;85.17;98882.00;6232397;23;20011;-83
2021/03/11 06:33:07;;;;;;;9.90;7.38;;;;;;;0.47;85.73;98894.78;6238726;22;19989;-84
2021/03/11 06:35:34;;;;;;;10.63;7.45;;;;;;;0.38;86.04;98870.22;6230896;22;20000;-82
2021/03/11 06:38:00;;;;;;;11.30;8.13;;;;;;;0.49;85.44;98876.06;6236960;23;20008;-84
2021/03/11 06:40:28;;;;;;;9.90;7.72;;;;;;;0.35;85.99;98848.59;6227756;23;20005;-83
2021/03/11 06:43:08;;;;;;;11.90;8.23;;;;;;;0.47;86.00;98869.16;6217804;23;20020;-81
2021/03/11 06:45:34;;;;;;;11.95;8.18;;;;;;;0.45;86.25;98860.56;6223335;23;20020;-80
2021/03/11 06:48:25;;;;;;;9.23;6.10;;;;;;;0.49;86.11;98861.00;6229441;23;20012;-82
2021/03/11 06:50:52;;;;;;;11.75;8.07;;;;;;;0.47;85.41;98850.63;6238933;22;20020;-83
2021/03/11 06:53:18;;;;;;;10.55;7.40;;;;;;;0.47;85.88;98829.44;6233133;23;20009;-81
2021/03/11 06:55:43;;;;;;;9.07;6.68;;;;;;;0.39;85.70;98802.25;6210463;23;20043;-83
2021/03/11 06:58:15;;;;;;;10.02;7.25;;;;;;;0.33;85.85;98795.88;6233005;23;20016;-82
2021/03/11 07:00:41;;;;;;;10.95;7.47;;;;;;;0.52;85.99;98822.78;6233357;23;20344;-82
2021/03/11 07:03:06;;;;;;;9.48;7.53;;;;;;;0.53;86.19;98813.84;6231805;23;20009;-83
2021/03/11 07:05:37;;;;;;;8.38;5.65;;;;;;;0.50;85.58;98812.41;6240391;22;19996;-85
2021/03/11 07:15:55;;;;;;;8.82;5.57;;;;;;;0.20;85.78;98732.22;6164642;22;20032;-83
2021/03/11 07:18:24;;;;;;;8.00;5.90;;;;;;;0.28;86.30;98715.44;6242595;22;20068;-84
2021/03/11 07:20:50;;;;;;;7.97;5.82;;;;;;;-0.17;85.76;98637.97;6215376;22;20092;-82
2021/03/11 07:23:16;;;;;;;9.75;7.53;;;;;;;0.09;85.82;98669.22;6200263;23;20019;-80
2021/03/11 07:25:43;;;;;;;9.13;5.57;;;;;;;0.33;85.87;98711.25;6199485;23;20009;-81
2021/03/11 07:28:30;;;;;;;9.57;6.80;;;;;;;-0.06;85.49;98643.63;6218734;23;20083;-80
2021/03/11 07:33:34;;;;;;;11.27;5.85;;;;;;;0.08;85.71;98665.75;6225822;22;20038;-83
2021/03/11 07:36:02;;;;;;;8.57;6.80;;;;;;;0.56;85.77;98723.50;6230141;23;20018;-83
2021/03/11 07:38:30;;;;;;;9.52;6.53;;;;;;;0.03;85.64;98638.22;6231802;23;20005;-83
2021/03/11 07:40:58;;;;;;;8.80;6.28;;;;;;;-0.14;85.00;98606.69;6238316;22;20012;-85
2021/03/11 07:43:26;;;;;;;9.75;6.93;;;;;;;0.16;85.32;98633.09;6236986;22;20016;-83
2021/03/11 07:45:55;;;;;;;7.80;6.22;;;;;;;-0.01;85.25;98612.13;6232854;23;20005;-83
2021/03/11 07:48:22;;;;;;;10.40;7.32;;;;;;;-0.06;85.91;98592.56;6233013;23;20009;-82
2021/03/11 07:50:48;;;;;;;9.15;6.25;;;;;;;0.22;85.41;98643.75;6238455;22;20024;-84
2021/03/11 07:53:14;;;;;;;8.38;5.90;;;;;;;0.61;85.54;98695.47;6237580;23;20016;-82
2021/03/11 07:55:39;;;;;;;5.65;4.53;;;;;;;-0.04;85.45;98564.09;6229309;23;20008;-81
2021/03/11 07:58:08;;;;;;;8.43;6.32;;;;;;;0.40;85.48;98637.25;6237296;23;20063;-80
2021/03/11 08:00:34;;;;;;;9.63;5.82;;;;;;;-0.08;85.62;98542.50;6242709;22;19996;-84
2021/03/11 08:03:07;;;;;;;8.52;6.07;;;;;;;0.20;85.48;98592.88;6238746;22;19999;-80
2021/03/11 08:33:59;;;;;;;5.32;3.78;;;;;;;0.27;85.59;98518.06;6243123;22;20076;-84
2021/03/11 08:36:27;;;;;;;4.47;2.97;;;;;;;0.40;85.43;98518.19;6243385;22;19992;-84
2021/03/11 08:38:52;;;;;;;7.75;3.92;;;;;;;0.39;85.39;98527.94;6244174;22;19999;-84
2021/03/11 09:07:12;;;;;;;5.00;3.33;;;;;;;0.20;84.80;98385.78;6206095;22;20025;-85
2021/03/11 09:09:49;;;;;;;9.10;4.03;;;;;;;0.42;85.43;98379.41;6215049;22;20012;-86
2021/03/11 10:07:13;;;;;;;13.80;7.25;;;;;;;1.16;84.08;98295.88;6224280;22;20051;-85
2021/03/11 10:33:01;;;;;;;6.90;4.88;;;;;;;1.06;83.76;98200.06;6189071;22;20025;-80
2021/03/11 10:35:31;;;;;;;15.52;8.02;;;;;;;1.69;83.80;98293.28;6226909;23;20009;-80
2021/03/11 10:38:14;;;;;;;16.67;7.85;;;;;;;1.29;83.99;98228.81;6222210;23;20009;-80
2021/03/11 10:40:40;;;;;;;18.55;8.50;;;;;;;1.02;83.70;98191.72;6221534;23;20058;-81
2021/03/11 10:43:24;;;;;;;16.27;7.20;;;;;;;0.67;84.77;98177.81;6239493;22;20000;-83
2021/03/11 10:45:51;;;;;;;13.00;6.70;;;;;;;1.05;85.34;98262.81;6221136;23;20004;-81
2021/03/11 10:48:16;;;;;;;13.13;6.72;;;;;;;0.87;85.22;98215.75;6215295;23;20099;-79
2021/03/11 10:50:45;;;;;;;12.57;6.70;;;;;;;1.17;85.25;98249.81;6218914;23;20048;-81
2021/03/11 10:53:12;;;;;;;10.23;4.97;;;;;;;1.54;84.09;98234.34;6234160;23;20017;-81
2021/03/11 10:55:40;;;;;;;8.38;5.90;;;;;;;1.53;83.17;98212.34;6239273;22;20015;-84
2021/03/11 10:58:17;;;;;;;9.05;5.90;;;;;;;1.85;82.68;98215.16;6241897;22;19992;-85
2021/03/11 11:05:57;;;;;;;7.80;5.40;;;;;;;0.86;83.02;98084.41;6160053;23;20688;-81
2021/03/11 11:44:35;;;;;;;9.27;5.70;;;;;;;1.11;84.80;98057.28;6201203;22;20046;-85
2021/03/11 11:47:00;;;;;;;10.20;5.68;;;;;;;1.10;84.65;98048.53;6242841;22;19997;-83
2021/03/11 11:52:01;;;;;;;9.35;5.72;;;;;;;1.88;83.66;98104.19;6193502;22;20028;-83
2021/03/11 11:54:29;;;;;;;9.77;5.35;;;;;;;1.17;83.22;97983.13;6242077;22;20027;-85
2021/03/11 12:15:01;;;;;;;8.57;4.65;;;;;;;1.46;83.81;97930.66;6175468;22;20010;-85
2021/03/11 12:25:13;;;;;;;13.05;7.32;;;;;;;2.33;83.11;98006.00;6226386;22;20008;-84
2021/03/11 12:27:38;;;;;;;13.98;7.63;;;;;;;2.15;83.17;97957.38;6243490;22;20008;-84
2021/03/11 12:30:05;;;;;;;13.15;6.25;;;;;;;1.70;83.67;97902.59;6242908;22;20004;-83
2021/03/11 12:32:31;;;;;;;14.63;6.78;;;;;;;1.77;83.75;97903.34;6244029;22;19989;-84
2021/03/11 12:34:56;;;;;;;12.75;6.43;;;;;;;2.16;83.66;97954.50;6242648;22;19996;-84
2021/03/11 12:37:22;;;;;;;15.73;6.40;;;;;;;2.29;83.97;97943.81;6242828;22;19992;-83
2021/03/11 12:39:48;;;;;;;16.35;8.35;;;;;;;2.43;84.83;98025.97;6243385;22;20028;-83
2021/03/11 12:42:14;;;;;;;22.65;9.02;;;;;;;1.94;84.00;97881.63;6243919;22;19997;-83
2021/03/11 12:52:25;;;;;;;33.90;12.27;;;;;;;2.37;84.37;97910.88;6237698;22;20064;-84
2021/03/11 12:54:51;;;;;;;29.17;12.63;;;;;;;2.27;85.35;97894.63;6243405;22;20004;-84
2021/03/11 13:02:27;;;;;;;37.17;14.07;;;;;;;2.45;83.53;97851.38;6233784;22;20084;-84
2021/03/11 13:04:52;;;;;;;34.50;14.13;;;;;;;2.07;84.73;97844.41;6210310;22;20024;-82
2021/03/11 13:07:18;;;;;;;37.15;13.38;;;;;;;2.05;85.35;97838.50;6223482;22;20009;-84
2021/03/11 13:09:44;;;;;;;42.03;14.20;;;;;;;2.47;84.24;97870.56;6218195;23;20092;-82
2021/03/11 13:12:10;;;;;;;40.22;14.77;;;;;;;3.03;84.84;97949.25;6242498;22;20035;-84
2021/03/11 13:14:36;;;;;;;33.92;14.38;;;;;;;2.30;85.45;97857.84;6241826;22;19996;-84
2021/03/11 13:17:03;;;;;;;30.90;11.35;;;;;;;2.43;84.37;97842.84;6242999;23;20005;-82
2021/03/11 13:19:28;;;;;;;27.98;12.18;;;;;;;2.42;83.98;97804.88;6243531;22;20004;-83
2021/03/11 13:21:54;;;;;;;31.92;13.68;;;;;;;2.76;84.01;97858.44;6242707;22;19988;-84
2021/03/11 13:24:20;;;;;;;36.20;13.70;;;;;;;2.42;84.99;97835.91;6242852;22;19989;-83
2021/03/11 13:26:46;;;;;;;29.88;13.57;;;;;;;2.43;84.41;97797.75;6242448;22;20015;-83
2021/03/11 13:29:12;;;;;;;27.88;11.68;;;;;;;2.24;85.63;97805.66;6242144;23;20009;-83
2021/03/11 13:31:38;;;;;;;40.15;14.05;;;;;;;2.30;84.75;97782.75;6240675;23;19999;-86
2021/03/11 13:34:07;;;;;;;35.25;13.93;;;;;;;3.02;84.95;97875.91;6205911;22;20067;-83
2021/03/11 13:36:34;;;;;;;35.00;14.35;;;;;;;2.95;85.05;97845.97;6232186;22;20036;-83
2021/03/11 13:38:59;;;;;;;37.92;13.80;;;;;;;2.73;85.49;97805.78;6212443;23;20028;-83
2021/03/11 13:41:26;;;;;;;45.70;14.35;;;;;;;2.98;84.77;97816.28;6212759;23;20016;-83
2021/03/11 13:43:52;;;;;;;50.25;17.85;;;;;;;2.72;84.00;97749.22;6211791;23;20040;-83
2021/03/11 13:46:20;;;;;;;53.97;18.20;;;;;;;2.97;84.37;97780.13;6211701;23;20004;-83
2021/03/11 13:48:46;;;;;;;46.03;17.08;;;;;;;2.91;84.22;97765.91;6212430;23;19997;-83
2021/03/11 13:51:12;;;;;;;45.72;14.55;;;;;;;3.10;84.56;97797.75;6212901;23;20021;-83
2021/03/11 13:53:38;;;;;;;49.58;18.10;;;;;;;2.94;84.31;97756.69;6183331;22;20025;-82
2021/03/11 13:56:04;;;;;;;55.20;18.10;;;;;;;2.85;85.44;97795.19;6242199;22;20004;-84
2021/03/11 14:03:40;;;;;;;56.92;19.10;;;;;;;2.81;85.43;97762.97;6215687;22;20033;-82
2021/03/11 14:06:06;;;;;;;48.28;17.00;;;;;;;3.17;86.74;97849.75;6241405;22;20000;-83
2021/03/11 14:08:32;;;;;;;70.88;20.80;;;;;;;2.64;86.43;97730.91;6241851;22;20012;-83
2021/03/11 14:10:58;;;;;;;58.20;20.02;;;;;;;3.02;85.49;97748.41;6240946;22;20027;-83
2021/03/11 14:13:24;;;;;;;49.42;19.27;;;;;;;2.75;86.86;97762.03;6242293;22;20079;-83
2021/03/11 14:15:49;;;;;;;48.22;18.67;;;;;;;2.43;87.14;97718.94;6240525;22;20040;-82
2021/03/11 14:18:15;;;;;;;55.20;19.90;;;;;;;2.63;87.63;97750.53;6240715;22;19992;-83
2021/03/11 14:20:41;;;;;;;68.15;21.05;;;;;;;3.65;86.51;97824.97;6242117;22;19999;-83
2021/03/11 14:23:07;;;;;;;71.57;24.00;;;;;;;3.49;84.28;97721.97;6241591;22;20047;-84
2021/03/11 14:25:32;;;;;;;61.72;23.20;;;;;;;3.94;82.66;97762.13;6242461;22;20028;-83
2021/03/11 14:27:58;;;;;;;62.38;22.00;;;;;;;3.82;82.91;97716.09;6241421;22;20008;-83
2021/03/11 14:30:25;;;;;;;60.88;20.95;;;;;;;3.47;83.52;97694.78;6241039;22;20000;-84
2021/03/11 14:32:51;;;;;;;53.20;19.85;;;;;;;3.57;84.33;97729.59;6241566;23;20008;-83
2021/03/11 14:35:17;;;;;;;56.85;21.17;;;;;;;3.31;85.98;97762.69;6241245;22;20004;-84
2021/03/11 14:37:45;;;;;;;62.22;21.92;;;;;;;3.65;84.63;97761.16;6241925;22;20020;-84
2021/03/11 14:40:11;;;;;;;67.70;21.50;;;;;;;3.04;86.74;97735.69;6241351;23;20028;-84
2021/03/11 14:42:39;;;;;;;55.35;17.58;;;;;;;2.78;86.82;97689.06;6242638;22;20008;-83
2021/03/11 14:45:06;;;;;;;78.53;22.05;;;;;;;2.83;87.58;97711.25;6241245;22;20060;-84
2021/03/11 14:47:32;;;;;;;65.90;20.38;;;;;;;3.03;87.74;97742.06;6241696;22;20016;-84
2021/03/11 14:49:57;;;;;;;78.07;21.70;;;;;;;3.06;87.65;97744.25;6241009;22;20027;-84
2021/03/11 14:52:23;;;;;;;69.97;20.95;;;;;;;2.68;87.84;97689.63;6242099;22;19995;-84
2021/03/11 14:54:49;;;;;;;73.85;20.60;;;;;;;2.77;88.00;97692.78;6241910;22;20035;-83
2021/03/11 14:57:14;;;;;;;63.05;20.38;;;;;;;2.63;87.96;97662.13;6241977;22;20009;-84
2021/03/11 14:59:41;;;;;;;81.82;20.77;;;;;;;2.66;87.91;97677.63;6193292;22;20020;-83
2021/03/11 15:02:08;;;;;;;65.57;19.75;;;;;;;2.94;88.17;97708.88;6242321;22;20046;-83
2021/03/11 15:04:34;;;;;;;77.65;21.85;;;;;;;2.81;87.98;97689.47;6241986;22;20009;-85
2021/03/11 15:07:00;;;;;;;63.17;18.80;;;;;;;2.70;88.04;97676.13;6242573;22;20304;-83
2021/03/11 15:09:25;;;;;;;62.95;18.67;;;;;;;2.97;88.36;97693.28;6216042;22;21274;-84
2021/03/11 15:11:51;;;;;;;63.30;19.48;;;;;;;2.88;88.31;97689.38;6241415;22;19994;-84
2021/03/11 15:14:17;;;;;;;73.22;19.77;;;;;;;2.99;87.99;97709.03;6242245;22;20013;-83
2021/03/11 15:16:44;;;;;;;73.18;20.25;;;;;;;3.23;88.12;97729.28;6240771;22;19997;-83
2021/03/11 15:19:10;;;;;;;85.03;20.85;;;;;;;2.99;88.23;97693.09;6241333;22;19993;-84